Terminal Aerodrome Forecast
Issued by NWS

Home | Current Version | Previous Version | Text Only | Print | Product List | Glossary On
Versions: 1 2 3 4 5 6 7 8 9 10 11 12 13 14 15 16 17 18
000
FTUS42 KFFC 281357 AAA
TAFPDK
TAF AMD
KPDK 281357Z 2814/0112 00000KT P6SM SCT006 BKN250
     FM281600 15005KT P6SM BKN020
     FM281900 19008KT P6SM BKN035
     FM010000 19006KT P6SM SCT050 BKN120
     FM010900 20007KT 5SM BR SCT008 BKN012=

USA.gov is the U.S. government's official web portal to all federal, state and local government web resources and services.